Time,TemperatureF,DewpointF,PressureIn,WindDirection,WindDirectionDegrees,WindSpeedMPH,WindSpeedGustMPH,Humidity,HourlyPrecipIn,Conditions,Clouds,dailyrainin,SoftwareType,DateUTC
2013-05-07 00:00:00,59.2,58.6,30.03,NNE,22,4.2,-999.0,98,-99.99,,,0.00,Acu-Link.com,2013-05-07 04:00:00,
2013-05-07 00:15:00,59.4,58.8,30.03,NNE,22,3.7,-999.0,98,-99.99,,,0.00,Acu-Link.com,2013-05-07 04:15:00,
2013-05-07 00:30:00,59.5,58.9,30.02,ESE,112,4.7,-999.0,98,-99.99,,,0.00,Acu-Link.com,2013-05-07 04:30:00,
2013-05-07 00:45:00,59.9,59.3,30.02,NNE,22,4.7,-999.0,98,-99.99,,,0.00,Acu-Link.com,2013-05-07 04:45:00,
2013-05-07 01:01:00,60.4,59.8,30.02,NNE,22,6.8,-999.0,98,-99.99,,,0.00,Acu-Link.com,2013-05-07 05:01:00,
2013-05-07 01:16:00,60.6,60.0,30.02,NNE,22,4.7,-999.0,98,-99.99,,,0.00,Acu-Link.com,2013-05-07 05:16:00,
2013-05-07 01:31:00,60.8,60.2,30.01,ESE,112,1.7,-999.0,98,-99.99,,,0.00,Acu-Link.com,2013-05-07 05:31:00,
2013-05-07 01:46:00,60.8,60.2,30.01,NE,45,6.3,-999.0,98,-99.99,,,0.00,Acu-Link.com,2013-05-07 05:46:00,
2013-05-07 02:02:00,60.6,60.0,30.01,NE,45,5.8,-999.0,98,-99.99,,,0.00,Acu-Link.com,2013-05-07 06:02:00,
2013-05-07 02:17:00,60.6,60.0,30.00,NE,45,3.7,-999.0,98,-99.99,,,0.00,Acu-Link.com,2013-05-07 06:17:00,
2013-05-07 02:32:00,60.6,60.0,30.00,NNE,22,0.0,-999.0,98,-99.99,,,0.00,Acu-Link.com,2013-05-07 06:32:00,
2013-05-07 02:47:00,61.0,60.4,29.99,NNE,22,5.8,-999.0,98,-99.99,,,0.00,Acu-Link.com,2013-05-07 06:47:00,
2013-05-07 03:02:00,60.8,60.2,29.98,ESE,112,5.8,-999.0,98,-99.99,,,0.00,Acu-Link.com,2013-05-07 07:02:00,
2013-05-07 03:17:00,60.4,59.8,29.98,North,0,4.2,-999.0,98,-99.99,,,0.01,Acu-Link.com,2013-05-07 07:17:00,
2013-05-07 03:32:00,60.4,59.8,29.98,NNE,22,3.7,-999.0,98,-99.99,,,0.01,Acu-Link.com,2013-05-07 07:32:00,
2013-05-07 03:48:00,60.4,59.8,29.98,NNE,22,7.8,-999.0,98,-99.99,,,0.01,Acu-Link.com,2013-05-07 07:48:00,
2013-05-07 04:03:00,60.4,59.8,29.98,NNE,22,4.7,-999.0,98,-99.99,,,0.01,Acu-Link.com,2013-05-07 08:03:00,
2013-05-07 04:19:00,60.6,60.0,29.98,NNE,22,3.2,-999.0,98,-99.99,,,0.01,Acu-Link.com,2013-05-07 08:19:00,
2013-05-07 04:34:00,60.8,60.2,29.98,NNE,22,2.7,-999.0,98,-99.99,,,0.01,Acu-Link.com,2013-05-07 08:34:00,
2013-05-07 04:49:00,61.0,60.4,29.97,NE,45,5.8,-999.0,98,-99.99,,,0.01,Acu-Link.com,2013-05-07 08:49:00,
2013-05-07 05:04:00,60.8,60.2,29.97,NE,45,3.7,-999.0,98,-99.99,,,0.01,Acu-Link.com,2013-05-07 09:04:00,
2013-05-07 05:19:00,60.6,60.0,29.98,NNE,22,4.7,-999.0,98,-99.99,,,0.01,Acu-Link.com,2013-05-07 09:19:00,
2013-05-07 05:35:00,60.8,60.2,29.98,NNE,22,4.2,-999.0,98,-99.99,,,0.01,Acu-Link.com,2013-05-07 09:35:00,
2013-05-07 05:50:00,60.8,60.2,29.98,NE,45,7.8,-999.0,98,-99.99,,,0.01,Acu-Link.com,2013-05-07 09:50:00,
2013-05-07 06:05:00,60.6,60.0,29.97,NNE,22,6.8,-999.0,98,-99.99,,,0.01,Acu-Link.com,2013-05-07 10:05:00,
2013-05-07 06:20:00,60.8,60.2,29.98,ESE,112,6.8,-999.0,98,-99.99,,,0.01,Acu-Link.com,2013-05-07 10:20:00,
2013-05-07 06:35:00,60.8,60.2,29.99,NE,45,7.3,-999.0,98,-99.99,,,0.01,Acu-Link.com,2013-05-07 10:35:00,
2013-05-07 06:51:00,61.2,60.6,29.98,NE,45,6.8,-999.0,98,-99.99,,,0.01,Acu-Link.com,2013-05-07 10:51:00,
2013-05-07 07:06:00,61.3,60.7,29.98,NNE,22,6.8,-999.0,98,-99.99,,,0.01,Acu-Link.com,2013-05-07 11:06:00,
2013-05-07 07:21:00,61.9,61.3,29.99,ESE,112,3.7,-999.0,98,-99.99,,,0.01,Acu-Link.com,2013-05-07 11:21:00,
2013-05-07 07:36:00,61.9,61.3,29.98,NE,45,6.8,-999.0,98,-99.99,,,0.01,Acu-Link.com,2013-05-07 11:36:00,
2013-05-07 07:54:00,61.9,61.3,29.99,ESE,112,5.8,-999.0,98,-99.99,,,0.01,Acu-Link.com,2013-05-07 11:54:00,
2013-05-07 08:10:00,62.1,61.5,30.00,NNE,22,2.7,-999.0,98,-99.99,,,0.03,Acu-Link.com,2013-05-07 12:10:00,
2013-05-07 08:25:00,62.2,61.6,29.99,NE,45,1.7,-999.0,98,-99.99,,,0.09,Acu-Link.com,2013-05-07 12:25:00,
2013-05-07 08:40:00,62.1,61.5,29.99,NE,45,5.3,-999.0,98,-99.99,,,0.12,Acu-Link.com,2013-05-07 12:40:00,
2013-05-07 08:55:00,62.1,61.5,29.99,NE,45,6.8,-999.0,98,-99.99,,,0.14,Acu-Link.com,2013-05-07 12:55:00,
2013-05-07 09:11:00,62.6,62.0,29.99,NNE,22,6.8,-999.0,98,-99.99,,,0.14,Acu-Link.com,2013-05-07 13:11:00,
2013-05-07 09:26:00,63.0,62.4,29.99,NE,45,4.7,-999.0,98,-99.99,,,0.14,Acu-Link.com,2013-05-07 13:26:00,
2013-05-07 09:41:00,65.3,64.7,30.00,SE,135,5.3,-999.0,98,-99.99,,,0.14,Acu-Link.com,2013-05-07 13:41:00,
2013-05-07 09:56:00,65.8,65.2,30.00,NE,45,6.8,-999.0,98,-99.99,,,0.14,Acu-Link.com,2013-05-07 13:56:00,
2013-05-07 10:11:00,65.8,65.2,29.99,NE,45,4.2,-999.0,98,-99.99,,,0.14,Acu-Link.com,2013-05-07 14:11:00,
2013-05-07 10:26:00,66.0,65.4,30.00,NNE,22,6.8,-999.0,98,-99.99,,,0.14,Acu-Link.com,2013-05-07 14:26:00,
2013-05-07 10:42:00,66.4,65.8,30.00,ENE,67,7.3,-999.0,98,-99.99,,,0.14,Acu-Link.com,2013-05-07 14:42:00,
2013-05-07 10:57:00,66.4,65.8,29.99,NE,45,5.3,-999.0,98,-99.99,,,0.14,Acu-Link.com,2013-05-07 14:57:00,
2013-05-07 11:12:00,66.2,65.6,30.00,ENE,67,6.8,-999.0,98,-99.99,,,0.14,Acu-Link.com,2013-05-07 15:12:00,
2013-05-07 11:27:00,67.1,66.5,29.99,ESE,112,3.7,-999.0,98,-99.99,,,0.14,Acu-Link.com,2013-05-07 15:27:00,
2013-05-07 11:43:00,66.7,66.1,29.99,ENE,67,3.7,-999.0,98,-99.99,,,0.14,Acu-Link.com,2013-05-07 15:43:00,
2013-05-07 11:58:00,67.3,66.7,29.99,ENE,67,5.3,-999.0,98,-99.99,,,0.14,Acu-Link.com,2013-05-07 15:58:00,
2013-05-07 12:13:00,66.2,65.6,29.98,ESE,112,5.3,-999.0,98,-99.99,,,0.14,Acu-Link.com,2013-05-07 16:13:00,
2013-05-07 12:29:00,64.8,64.2,29.99,NNE,22,6.8,-999.0,98,-99.99,,,0.14,Acu-Link.com,2013-05-07 16:29:00,
2013-05-07 12:44:00,63.3,62.7,29.98,NNE,22,4.7,-999.0,98,-99.99,,,0.14,Acu-Link.com,2013-05-07 16:44:00,
2013-05-07 12:59:00,62.6,62.0,29.98,NE,45,5.8,-999.0,98,-99.99,,,0.14,Acu-Link.com,2013-05-07 16:59:00,
2013-05-07 13:14:00,62.2,61.6,29.99,ENE,67,2.7,-999.0,98,-99.99,,,0.14,Acu-Link.com,2013-05-07 17:14:00,
2013-05-07 13:29:00,61.7,61.1,29.98,NNE,22,3.7,-999.0,98,-99.99,,,0.14,Acu-Link.com,2013-05-07 17:29:00,
2013-05-07 13:45:00,61.7,61.1,29.98,East,90,4.7,-999.0,98,-99.99,,,0.14,Acu-Link.com,2013-05-07 17:45:00,
2013-05-07 14:00:00,62.1,61.5,29.96,NNW,337,4.2,-999.0,98,-99.99,,,0.14,Acu-Link.com,2013-05-07 18:00:00,
2013-05-07 14:15:00,62.1,61.5,29.96,ESE,112,4.2,-999.0,98,-99.99,,,0.14,Acu-Link.com,2013-05-07 18:15:00,
2013-05-07 14:30:00,62.1,61.5,29.96,NE,45,6.8,-999.0,98,-99.99,,,0.14,Acu-Link.com,2013-05-07 18:30:00,
2013-05-07 14:45:00,61.3,60.7,29.96,NE,45,4.7,-999.0,98,-99.99,,,0.14,Acu-Link.com,2013-05-07 18:45:00,
2013-05-07 15:00:00,60.8,60.2,29.95,ESE,112,4.7,-999.0,98,-99.99,,,0.14,Acu-Link.com,2013-05-07 19:00:00,
2013-05-07 15:15:00,60.3,59.7,29.95,ENE,67,4.2,-999.0,98,-99.99,,,0.14,Acu-Link.com,2013-05-07 19:15:00,
2013-05-07 15:30:00,60.8,60.2,29.95,ESE,112,3.2,-999.0,98,-99.99,,,0.14,Acu-Link.com,2013-05-07 19:30:00,
2013-05-07 15:45:00,61.0,60.4,29.94,ESE,112,3.2,-999.0,98,-99.99,,,0.17,Acu-Link.com,2013-05-07 19:45:00,
2013-05-07 16:01:00,61.7,61.1,29.93,ESE,112,3.2,-999.0,98,-99.99,,,0.17,Acu-Link.com,2013-05-07 20:01:00,
2013-05-07 16:16:00,61.9,61.3,29.93,ESE,112,4.2,-999.0,98,-99.99,,,0.18,Acu-Link.com,2013-05-07 20:16:00,
2013-05-07 16:31:00,61.7,61.1,29.92,ESE,112,2.2,-999.0,98,-99.99,,,0.18,Acu-Link.com,2013-05-07 20:31:00,
2013-05-07 16:46:00,62.2,61.6,29.92,ESE,112,5.3,-999.0,98,-99.99,,,0.18,Acu-Link.com,2013-05-07 20:46:00,
2013-05-07 17:01:00,62.4,61.8,29.91,NNE,22,4.2,-999.0,98,-99.99,,,0.18,Acu-Link.com,2013-05-07 21:01:00,
2013-05-07 17:17:00,62.6,62.0,29.90,NE,45,2.7,-999.0,98,-99.99,,,0.18,Acu-Link.com,2013-05-07 21:17:00,
2013-05-07 17:32:00,63.0,62.4,29.88,NE,45,5.3,-999.0,98,-99.99,,,0.18,Acu-Link.com,2013-05-07 21:32:00,
2013-05-07 17:47:00,63.0,62.4,29.89,ENE,67,4.2,-999.0,98,-99.99,,,0.18,Acu-Link.com,2013-05-07 21:47:00,
2013-05-07 18:02:00,62.8,62.2,29.91,ENE,67,4.7,-999.0,98,-99.99,,,0.18,Acu-Link.com,2013-05-07 22:02:00,
2013-05-07 18:17:00,63.1,62.5,29.90,East,90,3.2,-999.0,98,-99.99,,,0.18,Acu-Link.com,2013-05-07 22:17:00,
2013-05-07 18:32:00,63.0,62.4,29.91,East,90,5.8,-999.0,98,-99.99,,,0.18,Acu-Link.com,2013-05-07 22:32:00,
2013-05-07 18:48:00,62.8,62.2,29.90,East,90,5.8,-999.0,98,-99.99,,,0.18,Acu-Link.com,2013-05-07 22:48:00,
2013-05-07 19:03:00,62.4,61.8,29.92,SE,135,3.2,-999.0,98,-99.99,,,0.18,Acu-Link.com,2013-05-07 23:03:00,
2013-05-07 19:18:00,62.6,62.0,29.91,ESE,112,4.7,-999.0,98,-99.99,,,0.18,Acu-Link.com,2013-05-07 23:18:00,
2013-05-07 19:33:00,62.6,62.0,29.92,ESE,112,4.2,-999.0,98,-99.99,,,0.18,Acu-Link.com,2013-05-07 23:33:00,
2013-05-07 19:49:00,63.7,63.1,29.93,ESE,112,3.2,-999.0,98,-99.99,,,0.18,Acu-Link.com,2013-05-07 23:49:00,
2013-05-07 20:04:00,63.5,62.9,29.92,ESE,112,1.7,-999.0,98,-99.99,,,0.18,Acu-Link.com,2013-05-08 00:04:00,
2013-05-07 20:19:00,63.0,62.4,29.93,ESE,112,3.7,-999.0,98,-99.99,,,0.18,Acu-Link.com,2013-05-08 00:19:00,
2013-05-07 20:34:00,62.6,62.0,29.94,East,90,3.7,-999.0,98,-99.99,,,0.18,Acu-Link.com,2013-05-08 00:34:00,
2013-05-07 20:50:00,62.1,61.5,29.95,ESE,112,2.7,-999.0,98,-99.99,,,0.18,Acu-Link.com,2013-05-08 00:50:00,
2013-05-07 21:05:00,61.9,61.3,29.96,ESE,112,2.7,-999.0,98,-99.99,,,0.18,Acu-Link.com,2013-05-08 01:05:00,
2013-05-07 21:20:00,60.8,60.2,29.96,ESE,112,2.7,-999.0,98,-99.99,,,0.18,Acu-Link.com,2013-05-08 01:20:00,
2013-05-07 21:35:00,61.3,60.7,29.95,ESE,112,2.7,-999.0,98,-99.99,,,0.19,Acu-Link.com,2013-05-08 01:35:00,
2013-05-07 21:50:00,61.2,60.6,29.95,ESE,112,2.2,-999.0,98,-99.99,,,0.19,Acu-Link.com,2013-05-08 01:50:00,
2013-05-07 22:05:00,60.8,60.2,29.95,ESE,112,3.2,-999.0,98,-99.99,,,0.19,Acu-Link.com,2013-05-08 02:05:00,
2013-05-07 22:21:00,60.8,60.2,29.96,ESE,112,0.0,-999.0,98,-99.99,,,0.19,Acu-Link.com,2013-05-08 02:21:00,
2013-05-07 22:36:00,60.8,60.2,29.95,ESE,112,1.1,-999.0,98,-99.99,,,0.19,Acu-Link.com,2013-05-08 02:36:00,
2013-05-07 22:51:00,60.8,60.2,29.94,ESE,112,1.7,-999.0,98,-99.99,,,0.19,Acu-Link.com,2013-05-08 02:51:00,
2013-05-07 23:06:00,60.8,60.2,29.94,ESE,112,1.1,-999.0,98,-99.99,,,0.19,Acu-Link.com,2013-05-08 03:06:00,
2013-05-07 23:22:00,60.8,60.2,29.93,ESE,112,0.0,-999.0,98,-99.99,,,0.19,Acu-Link.com,2013-05-08 03:22:00,
2013-05-07 23:37:00,61.0,60.4,29.94,ESE,112,0.0,-999.0,98,-99.99,,,0.19,Acu-Link.com,2013-05-08 03:37:00,
2013-05-07 23:52:00,61.0,60.4,29.94,ESE,112,0.0,-999.0,98,-99.99,,,0.19,Acu-Link.com,2013-05-08 03:52:00,